sensor_id;sensor_type;location;lat;lon;timestamp;pressure;altitude;pressure_sealevel;temperature;humidity
2397;BME280;1209;48.410;9.054;2023-07-02T00:01:46;95762.59;;;18.14;100.00
2397;BME280;1209;48.410;9.054;2023-07-02T00:04:13;95766.06;;;18.14;100.00
2397;BME280;1209;48.410;9.054;2023-07-02T00:06:44;95765.44;;;18.24;100.00
2397;BME280;1209;48.410;9.054;2023-07-02T00:09:10;95763.59;;;18.24;100.00
2397;BME280;1209;48.410;9.054;2023-07-02T00:11:40;95761.19;;;18.23;100.00
2397;BME280;1209;48.410;9.054;2023-07-02T00:14:06;95760.44;;;18.11;100.00
2397;BME280;1209;48.410;9.054;2023-07-02T00:16:32;95758.13;;;18.14;100.00
2397;BME280;1209;48.410;9.054;2023-07-02T00:18:57;95765.25;;;18.14;100.00
2397;BME280;1209;48.410;9.054;2023-07-02T00:21:22;95757.22;;;18.09;100.00
2397;BME280;1209;48.410;9.054;2023-07-02T00:23:50;95760.56;;;18.04;100.00
2397;BME280;1209;48.410;9.054;2023-07-02T00:26:15;95762.50;;;17.97;100.00
2397;BME280;1209;48.410;9.054;2023-07-02T00:28:41;95763.97;;;18.16;100.00
2397;BME280;1209;48.410;9.054;2023-07-02T00:31:06;95761.56;;;18.15;100.00
2397;BME280;1209;48.410;9.054;2023-07-02T00:33:33;95763.53;;;18.08;100.00
2397;BME280;1209;48.410;9.054;2023-07-02T00:35:58;95770.19;;;18.10;100.00
2397;BME280;1209;48.410;9.054;2023-07-02T00:38:26;95768.59;;;18.09;100.00
2397;BME280;1209;48.410;9.054;2023-07-02T00:40:51;95768.47;;;18.16;100.00
2397;BME280;1209;48.410;9.054;2023-07-02T00:43:16;95768.03;;;18.07;100.00
2397;BME280;1209;48.410;9.054;2023-07-02T00:45:41;95768.50;;;18.04;100.00
2397;BME280;1209;48.410;9.054;2023-07-02T00:48:07;95771.25;;;18.09;100.00
2397;BME280;1209;48.410;9.054;2023-07-02T00:50:32;95777.47;;;18.03;100.00
2397;BME280;1209;48.410;9.054;2023-07-02T00:52:58;95776.88;;;18.01;100.00
2397;BME280;1209;48.410;9.054;2023-07-02T00:55:24;95779.53;;;17.89;100.00
2397;BME280;1209;48.410;9.054;2023-07-02T00:57:50;95790.22;;;17.83;100.00
2397;BME280;1209;48.410;9.054;2023-07-02T01:00:15;95793.44;;;17.73;100.00
2397;BME280;1209;48.410;9.054;2023-07-02T01:02:41;95792.28;;;17.57;100.00
2397;BME280;1209;48.410;9.054;2023-07-02T01:05:14;95790.19;;;17.48;100.00
2397;BME280;1209;48.410;9.054;2023-07-02T01:07:39;95804.06;;;17.43;100.00
2397;BME280;1209;48.410;9.054;2023-07-02T01:10:05;95796.94;;;17.20;100.00
2397;BME280;1209;48.410;9.054;2023-07-02T01:12:31;95794.19;;;17.15;100.00
2397;BME280;1209;48.410;9.054;2023-07-02T01:15:00;95796.72;;;17.22;100.00
2397;BME280;1209;48.410;9.054;2023-07-02T01:17:27;95796.94;;;17.20;100.00
2397;BME280;1209;48.410;9.054;2023-07-02T01:19:57;95791.44;;;17.22;100.00
2397;BME280;1209;48.410;9.054;2023-07-02T01:22:25;95792.69;;;17.08;100.00
2397;BME280;1209;48.410;9.054;2023-07-02T01:24:51;95792.81;;;17.24;100.00
2397;BME280;1209;48.410;9.054;2023-07-02T01:27:17;95794.31;;;17.20;100.00
2397;BME280;1209;48.410;9.054;2023-07-02T01:29:43;95790.41;;;17.23;100.00
2397;BME280;1209;48.410;9.054;2023-07-02T01:32:12;95799.72;;;17.25;100.00
2397;BME280;1209;48.410;9.054;2023-07-02T01:34:37;95792.91;;;17.06;100.00
2397;BME280;1209;48.410;9.054;2023-07-02T01:37:03;95783.28;;;17.12;100.00
2397;BME280;1209;48.410;9.054;2023-07-02T01:39:29;95796.97;;;17.32;100.00
2397;BME280;1209;48.410;9.054;2023-07-02T01:41:55;95781.00;;;17.27;100.00
2397;BME280;1209;48.410;9.054;2023-07-02T01:44:31;95771.69;;;17.13;100.00
2397;BME280;1209;48.410;9.054;2023-07-02T01:46:56;95775.94;;;17.25;100.00
2397;BME280;1209;48.410;9.054;2023-07-02T01:49:24;95776.53;;;17.27;100.00
2397;BME280;1209;48.410;9.054;2023-07-02T01:51:54;95780.19;;;17.26;100.00
2397;BME280;1209;48.410;9.054;2023-07-02T01:54:22;95780.88;;;17.22;100.00
2397;BME280;1209;48.410;9.054;2023-07-02T01:56:48;95785.00;;;17.06;100.00
2397;BME280;1209;48.410;9.054;2023-07-02T01:59:13;95789.03;;;17.09;100.00
2397;BME280;1209;48.410;9.054;2023-07-02T02:01:39;95788.34;;;17.13;100.00
2397;BME280;1209;48.410;9.054;2023-07-02T02:04:08;95786.03;;;17.17;100.00
2397;BME280;1209;48.410;9.054;2023-07-02T02:06:33;95784.50;;;16.97;100.00
2397;BME280;1209;48.410;9.054;2023-07-02T02:08:59;95778.59;;;17.14;100.00
2397;BME280;1209;48.410;9.054;2023-07-02T02:11:26;95777.84;;;16.95;100.00
2397;BME280;1209;48.410;9.054;2023-07-02T02:13:51;95785.81;;;17.07;100.00
2397;BME280;1209;48.410;9.054;2023-07-02T02:16:17;95786.50;;;17.14;100.00
2397;BME280;1209;48.410;9.054;2023-07-02T02:18:42;95781.22;;;17.14;100.00
2397;BME280;1209;48.410;9.054;2023-07-02T02:21:07;95786.03;;;17.17;100.00
2397;BME280;1209;48.410;9.054;2023-07-02T02:23:33;95781.16;;;16.90;100.00
2397;BME280;1209;48.410;9.054;2023-07-02T02:25:58;95780.19;;;16.73;100.00
2397;BME280;1209;48.410;9.054;2023-07-02T02:28:23;95781.72;;;16.92;100.00
2397;BME280;1209;48.410;9.054;2023-07-02T02:30:49;95778.53;;;17.02;100.00
2397;BME280;1209;48.410;9.054;2023-07-02T02:33:14;95774.53;;;16.99;100.00
2397;BME280;1209;48.410;9.054;2023-07-02T02:35:39;95774.53;;;16.99;100.00
2397;BME280;1209;48.410;9.054;2023-07-02T02:38:05;95774.22;;;17.08;100.00
2397;BME280;1209;48.410;9.054;2023-07-02T02:40:30;95780.09;;;16.80;100.00
2397;BME280;1209;48.410;9.054;2023-07-02T02:42:55;95772.25;;;17.03;100.00
2397;BME280;1209;48.410;9.054;2023-07-02T02:45:21;95774.06;;;17.03;100.00
2397;BME280;1209;48.410;9.054;2023-07-02T02:47:46;95775.47;;;17.05;100.00
2397;BME280;1209;48.410;9.054;2023-07-02T02:50:12;95774.28;;;17.01;100.00
2397;BME280;1209;48.410;9.054;2023-07-02T02:52:38;95779.34;;;17.03;100.00
2397;BME280;1209;48.410;9.054;2023-07-02T02:55:05;95781.41;;;17.00;100.00
2397;BME280;1209;48.410;9.054;2023-07-02T02:57:31;95775.56;;;16.98;100.00
2397;BME280;1209;48.410;9.054;2023-07-02T02:59:56;95777.53;;;17.03;100.00
2397;BME280;1209;48.410;9.054;2023-07-02T03:02:22;95782.59;;;17.05;100.00
2397;BME280;1209;48.410;9.054;2023-07-02T03:04:47;95786.91;;;16.99;100.00
2397;BME280;1209;48.410;9.054;2023-07-02T03:07:14;95788.09;;;17.03;100.00
2397;BME280;1209;48.410;9.054;2023-07-02T03:09:40;95791.16;;;17.00;100.00
2397;BME280;1209;48.410;9.054;2023-07-02T03:12:05;95794.38;;;17.02;100.00
2397;BME280;1209;48.410;9.054;2023-07-02T03:14:31;95793.56;;;17.02;100.00
2397;BME280;1209;48.410;9.054;2023-07-02T03:16:56;95796.81;;;17.04;100.00
2397;BME280;1209;48.410;9.054;2023-07-02T03:19:22;95792.50;;;16.91;100.00
2397;BME280;1209;48.410;9.054;2023-07-02T03:21:47;95788.50;;;16.88;100.00
2397;BME280;1209;48.410;9.054;2023-07-02T03:24:12;95792.03;;;16.82;100.00
2397;BME280;1209;48.410;9.054;2023-07-02T03:26:40;95795.47;;;16.83;100.00
2397;BME280;1209;48.410;9.054;2023-07-02T03:29:06;95799.94;;;16.82;100.00
2397;BME280;1209;48.410;9.054;2023-07-02T03:31:31;95801.53;;;16.72;100.00
2397;BME280;1209;48.410;9.054;2023-07-02T03:33:57;95807.03;;;16.70;100.00
2397;BME280;1209;48.410;9.054;2023-07-02T03:36:22;95802.69;;;16.76;100.00
2397;BME280;1209;48.410;9.054;2023-07-02T03:38:47;95807.53;;;16.90;100.00
2397;BME280;1209;48.410;9.054;2023-07-02T03:41:13;95810.84;;;16.86;100.00
2397;BME280;1209;48.410;9.054;2023-07-02T03:43:38;95820.59;;;16.85;100.00
2397;BME280;1209;48.410;9.054;2023-07-02T03:46:03;95814.97;;;16.82;100.00
2397;BME280;1209;48.410;9.054;2023-07-02T03:48:29;95823.47;;;16.84;100.00
2397;BME280;1209;48.410;9.054;2023-07-02T03:50:54;95823.22;;;16.85;100.00
2397;BME280;1209;48.410;9.054;2023-07-02T03:53:19;95843.44;;;16.91;100.00
2397;BME280;1209;48.410;9.054;2023-07-02T03:55:45;95855.47;;;16.87;100.00
2397;BME280;1209;48.410;9.054;2023-07-02T03:58:10;95864.28;;;16.63;100.00
2397;BME280;1209;48.410;9.054;2023-07-02T04:00:35;95866.84;;;16.51;100.00
2397;BME280;1209;48.410;9.054;2023-07-02T04:03:01;95875.84;;;16.44;100.00
2397;BME280;1209;48.410;9.054;2023-07-02T04:05:27;95876.00;;;16.30;100.00
2397;BME280;1209;48.410;9.054;2023-07-02T04:07:52;95871.97;;;16.28;100.00
2397;BME280;1209;48.410;9.054;2023-07-02T04:10:17;95879.31;;;16.26;100.00
2397;BME280;1209;48.410;9.054;2023-07-02T04:12:42;95885.81;;;16.23;100.00
2397;BME280;1209;48.410;9.054;2023-07-02T04:15:08;95887.13;;;16.14;100.00
2397;BME280;1209;48.410;9.054;2023-07-02T04:17:34;95895.19;;;16.19;100.00
2397;BME280;1209;48.410;9.054;2023-07-02T04:20:00;95897.13;;;16.05;100.00
2397;BME280;1209;48.410;9.054;2023-07-02T04:22:26;95896.53;;;16.03;100.00
2397;BME280;1209;48.410;9.054;2023-07-02T04:24:51;95897.56;;;16.02;100.00
2397;BME280;1209;48.410;9.054;2023-07-02T04:27:16;95910.25;;;16.12;100.00
2397;BME280;1209;48.410;9.054;2023-07-02T04:29:43;95906.34;;;15.96;100.00
2397;BME280;1209;48.410;9.054;2023-07-02T04:32:09;95910.44;;;15.92;100.00
2397;BME280;1209;48.410;9.054;2023-07-02T04:34:34;95914.88;;;15.92;100.00
2397;BME280;1209;48.410;9.054;2023-07-02T04:37:04;95915.69;;;15.92;100.00
2397;BME280;1209;48.410;9.054;2023-07-02T04:39:29;95924.13;;;16.01;100.00
2397;BME280;1209;48.410;9.054;2023-07-02T04:41:55;95916.00;;;16.02;100.00
2397;BME280;1209;48.410;9.054;2023-07-02T04:44:20;95917.56;;;16.10;100.00
2397;BME280;1209;48.410;9.054;2023-07-02T04:46:57;95912.25;;;16.17;100.00
2397;BME280;1209;48.410;9.054;2023-07-02T04:49:22;95915.47;;;16.19;100.00
2397;BME280;1209;48.410;9.054;2023-07-02T04:51:47;95923.50;;;16.24;100.00
2397;BME280;1209;48.410;9.054;2023-07-02T04:54:13;95925.88;;;16.32;100.00
2397;BME280;1209;48.410;9.054;2023-07-02T04:56:38;95926.44;;;16.34;100.00
2397;BME280;1209;48.410;9.054;2023-07-02T04:59:03;95935.75;;;16.36;100.00
2397;BME280;1209;48.410;9.054;2023-07-02T05:01:29;95924.63;;;16.34;100.00
2397;BME280;1209;48.410;9.054;2023-07-02T05:03:54;95928.44;;;16.38;100.00
2397;BME280;1209;48.410;9.054;2023-07-02T05:06:19;95935.66;;;16.43;100.00
2397;BME280;1209;48.410;9.054;2023-07-02T05:08:45;95932.31;;;16.36;100.00
2397;BME280;1209;48.410;9.054;2023-07-02T05:11:10;95932.38;;;16.48;100.00
2397;BME280;1209;48.410;9.054;2023-07-02T05:13:35;95938.75;;;16.40;100.00
2397;BME280;1209;48.410;9.054;2023-07-02T05:16:00;95936.41;;;16.32;100.00
2397;BME280;1209;48.410;9.054;2023-07-02T05:18:26;95940.22;;;16.36;100.00
2397;BME280;1209;48.410;9.054;2023-07-02T05:20:51;95934.00;;;16.49;100.00
2397;BME280;1209;48.410;9.054;2023-07-02T05:23:16;95935.16;;;16.53;100.00
2397;BME280;1209;48.410;9.054;2023-07-02T05:25:41;95939.25;;;16.49;100.00
2397;BME280;1209;48.410;9.054;2023-07-02T05:28:07;95944.38;;;16.44;100.00
2397;BME280;1209;48.410;9.054;2023-07-02T05:30:32;95943.38;;;16.45;100.00
2397;BME280;1209;48.410;9.054;2023-07-02T05:32:57;95947.81;;;16.44;100.00
2397;BME280;1209;48.410;9.054;2023-07-02T05:35:22;95949.00;;;16.48;100.00
2397;BME280;1209;48.410;9.054;2023-07-02T05:37:48;95943.94;;;16.47;100.00
2397;BME280;1209;48.410;9.054;2023-07-02T05:40:13;95939.63;;;16.52;100.00
2397;BME280;1209;48.410;9.054;2023-07-02T05:42:38;95942.03;;;16.54;100.00
2397;BME280;1209;48.410;9.054;2023-07-02T05:45:04;95945.22;;;16.62;100.00
2397;BME280;1209;48.410;9.054;2023-07-02T05:47:29;95949.41;;;16.70;100.00
2397;BME280;1209;48.410;9.054;2023-07-02T05:49:54;95951.03;;;16.71;100.00
2397;BME280;1209;48.410;9.054;2023-07-02T05:52:20;95948.16;;;16.73;100.00
2397;BME280;1209;48.410;9.054;2023-07-02T05:54:45;95946.56;;;16.72;100.00
2397;BME280;1209;48.410;9.054;2023-07-02T05:57:10;95957.09;;;16.72;100.00
2397;BME280;1209;48.410;9.054;2023-07-02T05:59:37;95955.72;;;16.69;100.00
2397;BME280;1209;48.410;9.054;2023-07-02T06:02:03;95952.59;;;16.54;100.00
2397;BME280;1209;48.410;9.054;2023-07-02T06:04:28;95950.72;;;16.61;100.00
2397;BME280;1209;48.410;9.054;2023-07-02T06:06:53;95953.94;;;16.63;100.00
2397;BME280;1209;48.410;9.054;2023-07-02T06:09:18;95962.06;;;16.61;100.00
2397;BME280;1209;48.410;9.054;2023-07-02T06:11:44;95963.31;;;16.59;100.00
2397;BME280;1209;48.410;9.054;2023-07-02T06:14:09;95967.34;;;16.61;100.00
2397;BME280;1209;48.410;9.054;2023-07-02T06:16:34;95951.75;;;16.60;100.00
2397;BME280;1209;48.410;9.054;2023-07-02T06:19:00;95965.06;;;16.65;100.00
2397;BME280;1209;48.410;9.054;2023-07-02T06:21:25;95971.97;;;16.66;100.00
2397;BME280;1209;48.410;9.054;2023-07-02T06:23:56;95973.16;;;16.70;100.00
2397;BME280;1209;48.410;9.054;2023-07-02T06:26:22;95970.00;;;16.80;100.00
2397;BME280;1209;48.410;9.054;2023-07-02T06:28:48;95968.16;;;16.80;100.00
2397;BME280;1209;48.410;9.054;2023-07-02T06:31:13;95974.75;;;16.89;100.00
2397;BME280;1209;48.410;9.054;2023-07-02T06:33:39;95981.19;;;17.12;100.00
2397;BME280;1209;48.410;9.054;2023-07-02T06:36:05;95970.00;;;17.28;100.00
2397;BME280;1209;48.410;9.054;2023-07-02T06:38:30;95974.66;;;17.44;100.00
2397;BME280;1209;48.410;9.054;2023-07-02T06:40:56;95971.78;;;17.46;100.00
2397;BME280;1209;48.410;9.054;2023-07-02T06:43:21;95976.56;;;17.55;100.00
2397;BME280;1209;48.410;9.054;2023-07-02T06:45:46;95971.13;;;17.80;100.00
2397;BME280;1209;48.410;9.054;2023-07-02T06:48:12;95976.41;;;17.80;100.00
2397;BME280;1209;48.410;9.054;2023-07-02T06:50:43;95977.22;;;17.81;100.00
2397;BME280;1209;48.410;9.054;2023-07-02T06:53:08;95972.44;;;18.01;100.00
2397;BME280;1209;48.410;9.054;2023-07-02T06:55:33;95977.38;;;17.98;100.00
2397;BME280;1209;48.410;9.054;2023-07-02T06:57:58;95982.84;;;17.84;100.00
2397;BME280;1209;48.410;9.054;2023-07-02T07:00:24;95976.94;;;18.12;100.00
2397;BME280;1209;48.410;9.054;2023-07-02T07:02:49;95979.81;;;18.22;100.00
2397;BME280;1209;48.410;9.054;2023-07-02T07:05:14;95980.72;;;18.16;100.00
2397;BME280;1209;48.410;9.054;2023-07-02T07:07:41;95983.72;;;18.32;100.00
2397;BME280;1209;48.410;9.054;2023-07-02T07:10:06;95986.81;;;18.40;100.00
2397;BME280;1209;48.410;9.054;2023-07-02T07:12:32;95980.50;;;18.30;100.00
2397;BME280;1209;48.410;9.054;2023-07-02T07:14:58;95987.75;;;18.46;100.00
2397;BME280;1209;48.410;9.054;2023-07-02T07:17:23;95990.13;;;18.12;100.00
2397;BME280;1209;48.410;9.054;2023-07-02T07:19:49;95991.97;;;18.12;100.00
2397;BME280;1209;48.410;9.054;2023-07-02T07:22:14;95990.78;;;17.96;100.00
2397;BME280;1209;48.410;9.054;2023-07-02T07:24:41;95987.53;;;17.82;100.00
2397;BME280;1209;48.410;9.054;2023-07-02T07:27:06;95992.59;;;17.84;100.00
2397;BME280;1209;48.410;9.054;2023-07-02T07:29:33;95986.34;;;18.20;100.00
2397;BME280;1209;48.410;9.054;2023-07-02T07:31:58;95979.09;;;18.15;100.00
2397;BME280;1209;48.410;9.054;2023-07-02T07:34:23;95982.31;;;18.29;100.00
2397;BME280;1209;48.410;9.054;2023-07-02T07:36:49;95988.09;;;18.49;100.00
2397;BME280;1209;48.410;9.054;2023-07-02T07:39:14;95980.38;;;18.36;100.00
2397;BME280;1209;48.410;9.054;2023-07-02T07:41:39;95980.03;;;18.33;100.00
2397;BME280;1209;48.410;9.054;2023-07-02T07:44:05;95981.31;;;18.53;100.00
2397;BME280;1209;48.410;9.054;2023-07-02T07:46:30;95978.78;;;18.70;100.00
2397;BME280;1209;48.410;9.054;2023-07-02T07:48:55;95972.00;;;18.63;100.00
2397;BME280;1209;48.410;9.054;2023-07-02T07:51:20;95974.16;;;18.77;100.00
2397;BME280;1209;48.410;9.054;2023-07-02T07:53:46;95974.19;;;18.66;100.00
2397;BME280;1209;48.410;9.054;2023-07-02T07:56:11;95976.00;;;18.53;100.00
2397;BME280;1209;48.410;9.054;2023-07-02T07:58:36;95972.47;;;18.48;100.00
2397;BME280;1209;48.410;9.054;2023-07-02T08:01:02;95969.78;;;18.83;100.00
2397;BME280;1209;48.410;9.054;2023-07-02T08:03:27;95970.41;;;19.13;100.00
2397;BME280;1209;48.410;9.054;2023-07-02T08:05:53;95965.56;;;19.39;100.00
2397;BME280;1209;48.410;9.054;2023-07-02T08:08:18;95971.53;;;19.58;100.00
2397;BME280;1209;48.410;9.054;2023-07-02T08:10:43;95970.03;;;19.50;100.00
2397;BME280;1209;48.410;9.054;2023-07-02T08:13:10;95971.44;;;19.53;100.00
2397;BME280;1209;48.410;9.054;2023-07-02T08:15:36;95969.13;;;19.56;100.00
2397;BME280;1209;48.410;9.054;2023-07-02T08:18:01;95963.66;;;19.63;100.00
2397;BME280;1209;48.410;9.054;2023-07-02T08:20:26;95973.75;;;19.94;100.00
2397;BME280;1209;48.410;9.054;2023-07-02T08:22:52;95967.25;;;20.02;100.00
2397;BME280;1209;48.410;9.054;2023-07-02T08:25:18;95971.91;;;19.95;100.00
2397;BME280;1209;48.410;9.054;2023-07-02T08:27:44;95973.66;;;20.23;100.00
2397;BME280;1209;48.410;9.054;2023-07-02T08:30:09;95969.31;;;20.17;100.00
2397;BME280;1209;48.410;9.054;2023-07-02T08:32:35;95966.50;;;20.06;100.00
2397;BME280;1209;48.410;9.054;2023-07-02T08:35:00;95971.75;;;20.35;100.00
2397;BME280;1209;48.410;9.054;2023-07-02T08:37:25;95974.56;;;20.45;100.00
2397;BME280;1209;48.410;9.054;2023-07-02T08:39:51;95961.75;;;20.59;100.00
2397;BME280;1209;48.410;9.054;2023-07-02T08:42:16;95972.06;;;20.55;100.00
2397;BME280;1209;48.410;9.054;2023-07-02T08:44:46;95974.16;;;20.53;100.00
2397;BME280;1209;48.410;9.054;2023-07-02T08:47:12;95970.47;;;19.87;100.00
2397;BME280;1209;48.410;9.054;2023-07-02T08:49:39;95975.88;;;19.64;100.00
2397;BME280;1209;48.410;9.054;2023-07-02T08:52:06;95967.03;;;19.75;100.00
2397;BME280;1209;48.410;9.054;2023-07-02T08:54:31;95972.38;;;20.25;100.00
2397;BME280;1209;48.410;9.054;2023-07-02T08:56:57;95972.44;;;20.64;100.00
2397;BME280;1209;48.410;9.054;2023-07-02T08:59:22;95977.06;;;20.73;100.00
2397;BME280;1209;48.410;9.054;2023-07-02T09:01:52;95970.13;;;21.11;100.00
2397;BME280;1209;48.410;9.054;2023-07-02T09:04:25;95964.84;;;21.33;100.00
2397;BME280;1209;48.410;9.054;2023-07-02T09:07:05;95966.22;;;21.19;100.00
2397;BME280;1209;48.410;9.054;2023-07-02T09:09:31;95969.66;;;21.19;100.00
2397;BME280;1209;48.410;9.054;2023-07-02T09:11:56;95975.97;;;21.13;100.00
2397;BME280;1209;48.410;9.054;2023-07-02T09:17:04;95969.38;;;21.64;100.00
2397;BME280;1209;48.410;9.054;2023-07-02T09:19:30;95968.53;;;21.59;100.00
2397;BME280;1209;48.410;9.054;2023-07-02T09:21:58;95966.63;;;21.54;100.00
2397;BME280;1209;48.410;9.054;2023-07-02T09:24:27;95970.75;;;21.40;96.74
2397;BME280;1209;48.410;9.054;2023-07-02T09:26:55;95967.47;;;21.11;94.72
2397;BME280;1209;48.410;9.054;2023-07-02T09:29:28;95961.22;;;21.00;100.00
2397;BME280;1209;48.410;9.054;2023-07-02T09:31:55;95971.56;;;21.41;100.00
2397;BME280;1209;48.410;9.054;2023-07-02T09:34:29;95967.78;;;21.36;97.58
2397;BME280;1209;48.410;9.054;2023-07-02T09:36:55;95965.53;;;21.50;100.00
2397;BME280;1209;48.410;9.054;2023-07-02T09:39:31;95967.47;;;21.87;98.98
2397;BME280;1209;48.410;9.054;2023-07-02T09:41:58;95972.34;;;21.95;90.31
2397;BME280;1209;48.410;9.054;2023-07-02T09:44:27;95957.47;;;22.26;92.68
2397;BME280;1209;48.410;9.054;2023-07-02T09:47:04;95956.69;;;22.30;97.11
2397;BME280;1209;48.410;9.054;2023-07-02T09:49:52;95951.88;;;22.27;97.88
2397;BME280;1209;48.410;9.054;2023-07-02T09:52:18;95957.00;;;22.39;91.51
2397;BME280;1209;48.410;9.054;2023-07-02T09:54:45;95947.78;;;22.57;84.02
2397;BME280;1209;48.410;9.054;2023-07-02T09:57:10;95948.28;;;22.49;86.99
2397;BME280;1209;48.410;9.054;2023-07-02T09:59:37;95949.38;;;22.53;87.74
2397;BME280;1209;48.410;9.054;2023-07-02T10:02:02;95945.88;;;22.95;87.27
2397;BME280;1209;48.410;9.054;2023-07-02T10:04:39;95948.84;;;23.03;83.75
2397;BME280;1209;48.410;9.054;2023-07-02T10:07:05;95950.78;;;23.18;83.98
2397;BME280;1209;48.410;9.054;2023-07-02T10:09:40;95947.69;;;23.62;76.00
2397;BME280;1209;48.410;9.054;2023-07-02T10:12:22;95939.19;;;23.95;76.03
2397;BME280;1209;48.410;9.054;2023-07-02T10:14:52;95943.47;;;23.81;77.52
2397;BME280;1209;48.410;9.054;2023-07-02T10:19:53;95951.97;;;23.58;73.29
2397;BME280;1209;48.410;9.054;2023-07-02T10:22:19;95949.25;;;23.47;76.23
2397;BME280;1209;48.410;9.054;2023-07-02T10:24:54;95951.53;;;23.08;77.20
2397;BME280;1209;48.410;9.054;2023-07-02T10:27:32;95949.50;;;23.41;80.58
2397;BME280;1209;48.410;9.054;2023-07-02T10:29:58;95944.28;;;23.71;83.52
2397;BME280;1209;48.410;9.054;2023-07-02T10:32:27;95950.13;;;23.99;71.44
2397;BME280;1209;48.410;9.054;2023-07-02T10:34:56;95945.59;;;23.99;64.17
2397;BME280;1209;48.410;9.054;2023-07-02T10:37:23;95933.59;;;24.32;68.07
2397;BME280;1209;48.410;9.054;2023-07-02T10:39:49;95938.91;;;24.53;65.16
2397;BME280;1209;48.410;9.054;2023-07-02T10:42:14;95948.03;;;24.36;65.81
2397;BME280;1209;48.410;9.054;2023-07-02T10:44:50;95953.75;;;24.89;77.19
2397;BME280;1209;48.410;9.054;2023-07-02T10:47:17;95949.84;;;24.61;65.79
2397;BME280;1209;48.410;9.054;2023-07-02T10:49:42;95951.44;;;24.57;66.34
2397;BME280;1209;48.410;9.054;2023-07-02T10:52:07;95946.63;;;24.59;68.08
2397;BME280;1209;48.410;9.054;2023-07-02T10:54:59;95956.50;;;24.59;65.56
2397;BME280;1209;48.410;9.054;2023-07-02T10:57:24;95954.13;;;24.62;64.41
2397;BME280;1209;48.410;9.054;2023-07-02T10:59:49;95938.09;;;24.52;64.28
2397;BME280;1209;48.410;9.054;2023-07-02T11:02:15;95942.66;;;24.46;62.80
2397;BME280;1209;48.410;9.054;2023-07-02T11:04:40;95939.44;;;24.44;62.42
2397;BME280;1209;48.410;9.054;2023-07-02T11:07:06;95938.59;;;24.74;64.18
2397;BME280;1209;48.410;9.054;2023-07-02T11:09:31;95944.72;;;24.80;62.04
2397;BME280;1209;48.410;9.054;2023-07-02T11:12:01;95931.75;;;24.28;62.59
2397;BME280;1209;48.410;9.054;2023-07-02T11:14:35;95929.22;;;24.77;62.49
2397;BME280;1209;48.410;9.054;2023-07-02T11:17:06;95922.72;;;25.14;57.11
2397;BME280;1209;48.410;9.054;2023-07-02T11:19:32;95940.22;;;25.35;58.42
2397;BME280;1209;48.410;9.054;2023-07-02T11:21:58;95939.81;;;25.62;58.07
2397;BME280;1209;48.410;9.054;2023-07-02T11:24:35;95934.78;;;25.94;55.04
2397;BME280;1209;48.410;9.054;2023-07-02T11:27:03;95943.25;;;25.72;55.74
2397;BME280;1209;48.410;9.054;2023-07-02T11:29:30;95935.75;;;25.75;57.85
2397;BME280;1209;48.410;9.054;2023-07-02T11:32:06;95935.75;;;25.75;59.18
2397;BME280;1209;48.410;9.054;2023-07-02T11:34:32;95934.31;;;25.43;58.18
2397;BME280;1209;48.410;9.054;2023-07-02T11:36:57;95934.78;;;25.55;60.41
2397;BME280;1209;48.410;9.054;2023-07-02T11:39:23;95934.63;;;25.31;59.14
2397;BME280;1209;48.410;9.054;2023-07-02T11:41:49;95933.16;;;25.59;57.12
2397;BME280;1209;48.410;9.054;2023-07-02T11:44:16;95932.34;;;25.98;57.18
2397;BME280;1209;48.410;9.054;2023-07-02T11:46:41;95937.25;;;26.20;54.67
2397;BME280;1209;48.410;9.054;2023-07-02T11:49:06;95930.44;;;25.69;54.43
2397;BME280;1209;48.410;9.054;2023-07-02T11:51:38;95933.97;;;25.94;54.84
2397;BME280;1209;48.410;9.054;2023-07-02T11:54:04;95933.78;;;25.41;53.10
2397;BME280;1209;48.410;9.054;2023-07-02T11:56:30;95928.00;;;25.24;54.74
2397;BME280;1209;48.410;9.054;2023-07-02T11:58:55;95930.59;;;25.83;55.21
2397;BME280;1209;48.410;9.054;2023-07-02T12:01:20;95925.91;;;26.04;54.43
2397;BME280;1209;48.410;9.054;2023-07-02T12:03:46;95936.47;;;26.48;59.54
2397;BME280;1209;48.410;9.054;2023-07-02T12:06:11;95938.56;;;26.22;48.95
2397;BME280;1209;48.410;9.054;2023-07-02T12:08:36;95937.19;;;26.59;50.49
2397;BME280;1209;48.410;9.054;2023-07-02T12:11:02;95930.38;;;26.90;49.79
2397;BME280;1209;48.410;9.054;2023-07-02T12:13:27;95932.53;;;27.17;46.82
2397;BME280;1209;48.410;9.054;2023-07-02T12:15:52;95932.22;;;27.19;45.92
2397;BME280;1209;48.410;9.054;2023-07-02T12:18:18;95929.22;;;26.78;46.36
2397;BME280;1209;48.410;9.054;2023-07-02T12:20:43;95936.78;;;26.71;47.52
2397;BME280;1209;48.410;9.054;2023-07-02T12:23:09;95927.03;;;26.56;49.01
2397;BME280;1209;48.410;9.054;2023-07-02T12:25:36;95928.69;;;25.89;47.77
2397;BME280;1209;48.410;9.054;2023-07-02T12:28:03;95934.59;;;26.20;49.08
2397;BME280;1209;48.410;9.054;2023-07-02T12:30:28;95933.78;;;26.53;48.93
2397;BME280;1209;48.410;9.054;2023-07-02T12:32:53;95928.81;;;26.37;46.55
2397;BME280;1209;48.410;9.054;2023-07-02T12:35:19;95928.06;;;26.84;49.61
2397;BME280;1209;48.410;9.054;2023-07-02T12:37:45;95930.19;;;26.63;46.76
2397;BME280;1209;48.410;9.054;2023-07-02T12:40:11;95930.00;;;26.54;46.70
2397;BME280;1209;48.410;9.054;2023-07-02T12:42:37;95927.84;;;26.80;47.43
2397;BME280;1209;48.410;9.054;2023-07-02T12:45:03;95930.84;;;27.03;46.98
2397;BME280;1209;48.410;9.054;2023-07-02T12:47:28;95917.44;;;27.21;45.40
2397;BME280;1209;48.410;9.054;2023-07-02T12:49:54;95923.16;;;26.67;46.53
2397;BME280;1209;48.410;9.054;2023-07-02T12:52:20;95919.47;;;26.63;48.82
2397;BME280;1209;48.410;9.054;2023-07-02T12:54:45;95930.41;;;26.66;46.81
2397;BME280;1209;48.410;9.054;2023-07-02T12:57:10;95921.59;;;26.32;49.30
2397;BME280;1209;48.410;9.054;2023-07-02T12:59:36;95931.22;;;25.70;49.17
2397;BME280;1209;48.410;9.054;2023-07-02T13:02:01;95922.09;;;25.27;48.89
2397;BME280;1209;48.410;9.054;2023-07-02T13:04:26;95927.06;;;25.88;50.18
2397;BME280;1209;48.410;9.054;2023-07-02T13:06:52;95920.59;;;26.28;50.21
2397;BME280;1209;48.410;9.054;2023-07-02T13:09:17;95918.41;;;26.35;49.60
2397;BME280;1209;48.410;9.054;2023-07-02T13:11:42;95919.59;;;26.48;48.40
2397;BME280;1209;48.410;9.054;2023-07-02T13:14:07;95913.50;;;26.13;50.20
2397;BME280;1209;48.410;9.054;2023-07-02T13:16:33;95916.28;;;26.03;49.13